Jinghong, China
Current Conditions -  °F | °C
As of 7:00 PM on Friday 24 Oct 2014 (Local Time) from VTCT Reporting Station
Scattered Clouds Scattered Clouds  
Wind Chill: 77°   Ceiling: Unl
Heat Index: 79°   Visibility: 6mi
Dew Point: 68°   Wind: 6mph
Humidity: 74%   Direction: 130°SE
Pressure: 29.88"   Gusts: NA
Location:  22.02°N, 100.8°E
Report Text: VTCT 241100Z 13005KT 9999 SCT025 25/20 Q1012 A2988RMK/RWY03 INFO L
Loading
Personal Weather Stations






























Interactive Weather Map
Tropical Storm Tracking
New forecast layout! Learn more

10-Day Weather Forecast

Advertisements
Track Severe Weather on mobile